sensor_id;sensor_type;location;lat;lon;timestamp;pressure;altitude;pressure_sealevel;temperature;humidity
80568;BME280;69922;45.656;25.586;2024-03-08T00:00:20;95462.52;;;1.96;62.59
80568;BME280;69922;45.656;25.586;2024-03-08T00:01:47;95459.52;;;1.92;62.40
80568;BME280;69922;45.656;25.586;2024-03-08T00:02:54;95461.52;;;1.90;62.57
80568;BME280;69922;45.656;25.586;2024-03-08T00:04:01;95460.98;;;1.89;62.52
80568;BME280;69922;45.656;25.586;2024-03-08T00:05:10;95457.56;;;1.87;62.71
80568;BME280;69922;45.656;25.586;2024-03-08T00:06:16;95454.92;;;1.86;62.51
80568;BME280;69922;45.656;25.586;2024-03-08T00:07:23;95456.15;;;1.85;62.53
80568;BME280;69922;45.656;25.586;2024-03-08T00:08:30;95451.14;;;1.84;62.39
80568;BME280;69922;45.656;25.586;2024-03-08T00:09:37;95453.25;;;1.83;62.72
80568;BME280;69922;45.656;25.586;2024-03-08T00:10:46;95452.27;;;1.82;62.50
80568;BME280;69922;45.656;25.586;2024-03-08T00:11:53;95451.80;;;1.82;62.57
80568;BME280;69922;45.656;25.586;2024-03-08T00:12:59;95449.31;;;1.82;62.67
80568;BME280;69922;45.656;25.586;2024-03-08T00:14:06;95450.92;;;1.82;62.61
80568;BME280;69922;45.656;25.586;2024-03-08T00:15:14;95449.69;;;1.82;62.73
80568;BME280;69922;45.656;25.586;2024-03-08T00:16:23;95451.89;;;1.82;62.86
80568;BME280;69922;45.656;25.586;2024-03-08T00:17:30;95453.88;;;1.81;62.90
80568;BME280;69922;45.656;25.586;2024-03-08T00:18:38;95450.77;;;1.81;62.83
80568;BME280;69922;45.656;25.586;2024-03-08T00:19:45;95451.02;;;1.80;62.82
80568;BME280;69922;45.656;25.586;2024-03-08T00:20:52;95451.99;;;1.79;62.44
80568;BME280;69922;45.656;25.586;2024-03-08T00:21:59;95450.52;;;1.78;62.94
80568;BME280;69922;45.656;25.586;2024-03-08T00:23:07;95451.44;;;1.77;62.72
80568;BME280;69922;45.656;25.586;2024-03-08T00:24:13;95452.40;;;1.76;62.86
80568;BME280;69922;45.656;25.586;2024-03-08T00:25:20;95450.89;;;1.76;62.65
80568;BME280;69922;45.656;25.586;2024-03-08T00:26:27;95450.25;;;1.74;62.97
80568;BME280;69922;45.656;25.586;2024-03-08T00:27:36;95448.99;;;1.73;63.27
80568;BME280;69922;45.656;25.586;2024-03-08T00:28:43;95448.13;;;1.72;62.94
80568;BME280;69922;45.656;25.586;2024-03-08T00:29:50;95448.50;;;1.71;62.92
80568;BME280;69922;45.656;25.586;2024-03-08T00:30:57;95449.41;;;1.71;63.03
80568;BME280;69922;45.656;25.586;2024-03-08T00:32:04;95451.30;;;1.72;63.20
80568;BME280;69922;45.656;25.586;2024-03-08T00:33:11;95448.56;;;1.72;63.08
80568;BME280;69922;45.656;25.586;2024-03-08T00:34:18;95448.02;;;1.72;62.91
80568;BME280;69922;45.656;25.586;2024-03-08T00:35:25;95447.38;;;1.72;63.21
80568;BME280;69922;45.656;25.586;2024-03-08T00:36:31;95443.35;;;1.72;62.90
80568;BME280;69922;45.656;25.586;2024-03-08T00:37:38;95442.36;;;1.72;62.91
80568;BME280;69922;45.656;25.586;2024-03-08T00:38:45;95444.59;;;1.72;63.34
80568;BME280;69922;45.656;25.586;2024-03-08T00:39:53;95443.50;;;1.72;63.05
80568;BME280;69922;45.656;25.586;2024-03-08T00:41:00;95444.09;;;1.72;63.09
80568;BME280;69922;45.656;25.586;2024-03-08T00:42:07;95444.67;;;1.72;63.23
80568;BME280;69922;45.656;25.586;2024-03-08T00:43:15;95443.65;;;1.71;63.32
80568;BME280;69922;45.656;25.586;2024-03-08T00:44:22;95443.92;;;1.71;63.20
80568;BME280;69922;45.656;25.586;2024-03-08T00:45:29;95446.39;;;1.70;63.11
80568;BME280;69922;45.656;25.586;2024-03-08T00:46:36;95446.23;;;1.69;63.40
80568;BME280;69922;45.656;25.586;2024-03-08T00:47:43;95443.74;;;1.68;63.33
80568;BME280;69922;45.656;25.586;2024-03-08T00:48:51;95444.18;;;1.68;63.00
80568;BME280;69922;45.656;25.586;2024-03-08T00:49:58;95446.16;;;1.67;62.98
80568;BME280;69922;45.656;25.586;2024-03-08T00:51:06;95444.23;;;1.67;63.00
80568;BME280;69922;45.656;25.586;2024-03-08T00:52:13;95445.14;;;1.67;63.13
80568;BME280;69922;45.656;25.586;2024-03-08T00:53:20;95445.14;;;1.67;63.10
80568;BME280;69922;45.656;25.586;2024-03-08T00:54:27;95442.17;;;1.67;62.92
80568;BME280;69922;45.656;25.586;2024-03-08T00:55:34;95442.11;;;1.67;63.10
80568;BME280;69922;45.656;25.586;2024-03-08T00:56:41;95445.13;;;1.66;63.03
80568;BME280;69922;45.656;25.586;2024-03-08T00:57:47;95440.50;;;1.65;63.22
80568;BME280;69922;45.656;25.586;2024-03-08T00:58:54;95443.79;;;1.64;62.90
80568;BME280;69922;45.656;25.586;2024-03-08T01:00:02;95440.02;;;1.64;62.94
80568;BME280;69922;45.656;25.586;2024-03-08T01:01:10;95443.77;;;1.64;62.89
80568;BME280;69922;45.656;25.586;2024-03-08T01:02:17;95443.17;;;1.64;63.10
80568;BME280;69922;45.656;25.586;2024-03-08T01:03:25;95443.02;;;1.63;62.86
80568;BME280;69922;45.656;25.586;2024-03-08T01:04:33;95445.71;;;1.63;63.05
80568;BME280;69922;45.656;25.586;2024-03-08T01:05:39;95443.50;;;1.63;63.11
80568;BME280;69922;45.656;25.586;2024-03-08T01:06:46;95444.74;;;1.63;63.18
80568;BME280;69922;45.656;25.586;2024-03-08T01:07:53;95439.62;;;1.62;63.02
80568;BME280;69922;45.656;25.586;2024-03-08T01:09:00;95442.05;;;1.63;63.09
80568;BME280;69922;45.656;25.586;2024-03-08T01:10:09;95445.39;;;1.62;62.94
80568;BME280;69922;45.656;25.586;2024-03-08T01:11:16;95443.06;;;1.62;62.88
80568;BME280;69922;45.656;25.586;2024-03-08T01:12:23;95443.01;;;1.62;62.98
80568;BME280;69922;45.656;25.586;2024-03-08T01:13:30;95444.85;;;1.62;63.20
80568;BME280;69922;45.656;25.586;2024-03-08T01:14:37;95446.99;;;1.61;62.89
80568;BME280;69922;45.656;25.586;2024-03-08T01:15:44;95446.73;;;1.62;63.11
80568;BME280;69922;45.656;25.586;2024-03-08T01:16:51;95444.30;;;1.61;63.22
80568;BME280;69922;45.656;25.586;2024-03-08T01:17:58;95444.89;;;1.61;62.89
80568;BME280;69922;45.656;25.586;2024-03-08T01:19:05;95446.30;;;1.61;63.02
80568;BME280;69922;45.656;25.586;2024-03-08T01:20:12;95445.76;;;1.61;62.77
80568;BME280;69922;45.656;25.586;2024-03-08T01:21:19;95447.10;;;1.62;63.09
80568;BME280;69922;45.656;25.586;2024-03-08T01:22:26;95444.59;;;1.62;63.05
80568;BME280;69922;45.656;25.586;2024-03-08T01:23:34;95448.61;;;1.62;62.75
80568;BME280;69922;45.656;25.586;2024-03-08T01:24:41;95448.30;;;1.62;62.67
80568;BME280;69922;45.656;25.586;2024-03-08T01:25:48;95445.39;;;1.62;63.03
80568;BME280;69922;45.656;25.586;2024-03-08T01:26:58;95442.80;;;1.62;62.93
80568;BME280;69922;45.656;25.586;2024-03-08T01:28:07;95444.48;;;1.63;62.85
80568;BME280;69922;45.656;25.586;2024-03-08T01:29:13;95442.59;;;1.63;63.19
80568;BME280;69922;45.656;25.586;2024-03-08T01:30:20;95445.06;;;1.63;62.92
80568;BME280;69922;45.656;25.586;2024-03-08T01:31:27;95442.00;;;1.63;63.00
80568;BME280;69922;45.656;25.586;2024-03-08T01:32:35;95442.42;;;1.63;62.99
80568;BME280;69922;45.656;25.586;2024-03-08T01:33:42;95448.09;;;1.63;62.82
80568;BME280;69922;45.656;25.586;2024-03-08T01:34:49;95448.14;;;1.64;63.05
80568;BME280;69922;45.656;25.586;2024-03-08T01:35:56;95446.73;;;1.64;62.86
80568;BME280;69922;45.656;25.586;2024-03-08T01:37:04;95444.90;;;1.64;62.83
80568;BME280;69922;45.656;25.586;2024-03-08T01:38:11;95444.80;;;1.64;62.87
80568;BME280;69922;45.656;25.586;2024-03-08T01:39:17;95447.45;;;1.66;63.02
80568;BME280;69922;45.656;25.586;2024-03-08T01:40:24;95444.49;;;1.66;62.94
80568;BME280;69922;45.656;25.586;2024-03-08T01:41:31;95447.47;;;1.68;62.81
80568;BME280;69922;45.656;25.586;2024-03-08T01:42:39;95447.36;;;1.68;62.67
80568;BME280;69922;45.656;25.586;2024-03-08T01:43:46;95446.72;;;1.68;62.83
80568;BME280;69922;45.656;25.586;2024-03-08T01:44:52;95445.09;;;1.68;62.80
80568;BME280;69922;45.656;25.586;2024-03-08T01:46:00;95444.66;;;1.67;62.83
80568;BME280;69922;45.656;25.586;2024-03-08T01:47:08;95443.47;;;1.67;63.00
80568;BME280;69922;45.656;25.586;2024-03-08T01:48:16;95449.40;;;1.67;62.76
80568;BME280;69922;45.656;25.586;2024-03-08T01:49:26;95445.56;;;1.66;62.76
80568;BME280;69922;45.656;25.586;2024-03-08T01:50:33;95446.97;;;1.66;62.87
80568;BME280;69922;45.656;25.586;2024-03-08T01:51:43;95445.99;;;1.66;62.66
80568;BME280;69922;45.656;25.586;2024-03-08T01:52:50;95444.75;;;1.66;62.81
80568;BME280;69922;45.656;25.586;2024-03-08T01:53:58;95444.27;;;1.66;62.60
80568;BME280;69922;45.656;25.586;2024-03-08T01:55:09;95443.41;;;1.65;62.85
80568;BME280;69922;45.656;25.586;2024-03-08T01:56:16;95446.58;;;1.65;62.89
80568;BME280;69922;45.656;25.586;2024-03-08T01:57:24;95442.05;;;1.63;62.84
80568;BME280;69922;45.656;25.586;2024-03-08T01:58:32;95443.60;;;1.62;62.66
80568;BME280;69922;45.656;25.586;2024-03-08T01:59:40;95445.38;;;1.62;62.64
80568;BME280;69922;45.656;25.586;2024-03-08T02:00:49;95444.09;;;1.61;62.44
80568;BME280;69922;45.656;25.586;2024-03-08T02:01:57;95440.17;;;1.61;62.59
80568;BME280;69922;45.656;25.586;2024-03-08T02:03:07;95437.85;;;1.61;62.75
80568;BME280;69922;45.656;25.586;2024-03-08T02:04:14;95437.20;;;1.61;62.88
80568;BME280;69922;45.656;25.586;2024-03-08T02:05:21;95437.19;;;1.61;62.87
80568;BME280;69922;45.656;25.586;2024-03-08T02:06:30;95440.38;;;1.60;62.91
80568;BME280;69922;45.656;25.586;2024-03-08T02:07:36;95437.57;;;1.60;62.65
80568;BME280;69922;45.656;25.586;2024-03-08T02:08:46;95435.95;;;1.61;62.82
80568;BME280;69922;45.656;25.586;2024-03-08T02:09:53;95437.04;;;1.62;62.85
80568;BME280;69922;45.656;25.586;2024-03-08T02:11:01;95440.64;;;1.62;63.07
80568;BME280;69922;45.656;25.586;2024-03-08T02:12:09;95439.02;;;1.62;62.97
80568;BME280;69922;45.656;25.586;2024-03-08T02:13:16;95434.40;;;1.60;62.67
80568;BME280;69922;45.656;25.586;2024-03-08T02:14:23;95437.25;;;1.59;62.77
80568;BME280;69922;45.656;25.586;2024-03-08T02:15:53;95438.20;;;1.59;62.77
80568;BME280;69922;45.656;25.586;2024-03-08T02:17:04;95434.49;;;1.59;62.85
80568;BME280;69922;45.656;25.586;2024-03-08T02:18:11;95434.06;;;1.59;62.81
80568;BME280;69922;45.656;25.586;2024-03-08T02:19:18;95435.25;;;1.60;62.84
80568;BME280;69922;45.656;25.586;2024-03-08T02:21:38;95437.58;;;1.60;62.96
80568;BME280;69922;45.656;25.586;2024-03-08T02:22:45;95433.97;;;1.61;62.63
80568;BME280;69922;45.656;25.586;2024-03-08T02:23:51;95435.41;;;1.61;62.75
80568;BME280;69922;45.656;25.586;2024-03-08T02:25:00;95435.20;;;1.61;62.82
80568;BME280;69922;45.656;25.586;2024-03-08T02:26:09;95432.79;;;1.60;62.83
80568;BME280;69922;45.656;25.586;2024-03-08T02:27:17;95433.69;;;1.60;62.98
80568;BME280;69922;45.656;25.586;2024-03-08T02:28:30;95435.20;;;1.61;62.99
80568;BME280;69922;45.656;25.586;2024-03-08T02:29:38;95434.30;;;1.61;62.86
80568;BME280;69922;45.656;25.586;2024-03-08T02:30:48;95438.49;;;1.62;62.91
80568;BME280;69922;45.656;25.586;2024-03-08T02:31:54;95434.89;;;1.62;63.12
80568;BME280;69922;45.656;25.586;2024-03-08T02:33:02;95434.50;;;1.62;62.91
80568;BME280;69922;45.656;25.586;2024-03-08T02:34:10;95438.29;;;1.62;62.70
80568;BME280;69922;45.656;25.586;2024-03-08T02:35:17;95439.09;;;1.61;62.68
80568;BME280;69922;45.656;25.586;2024-03-08T02:36:24;95437.79;;;1.61;62.85
80568;BME280;69922;45.656;25.586;2024-03-08T02:37:31;95439.29;;;1.61;62.74
80568;BME280;69922;45.656;25.586;2024-03-08T02:38:38;95435.91;;;1.61;62.74
80568;BME280;69922;45.656;25.586;2024-03-08T02:39:48;95436.88;;;1.61;62.70
80568;BME280;69922;45.656;25.586;2024-03-08T02:40:55;95437.36;;;1.62;62.85
80568;BME280;69922;45.656;25.586;2024-03-08T02:42:01;95440.05;;;1.63;62.87
80568;BME280;69922;45.656;25.586;2024-03-08T02:43:08;95436.08;;;1.63;62.90
80568;BME280;69922;45.656;25.586;2024-03-08T02:44:15;95438.61;;;1.64;62.83
80568;BME280;69922;45.656;25.586;2024-03-08T02:45:21;95434.45;;;1.64;63.00
80568;BME280;69922;45.656;25.586;2024-03-08T02:46:28;95439.36;;;1.64;62.84
80568;BME280;69922;45.656;25.586;2024-03-08T02:47:36;95437.86;;;1.64;62.93
80568;BME280;69922;45.656;25.586;2024-03-08T02:48:44;95438.71;;;1.64;62.95
80568;BME280;69922;45.656;25.586;2024-03-08T02:49:51;95435.65;;;1.63;62.77
80568;BME280;69922;45.656;25.586;2024-03-08T02:50:58;95438.45;;;1.63;62.68
80568;BME280;69922;45.656;25.586;2024-03-08T02:52:06;95439.14;;;1.63;62.82
80568;BME280;69922;45.656;25.586;2024-03-08T02:53:13;95438.01;;;1.62;62.79
80568;BME280;69922;45.656;25.586;2024-03-08T02:54:20;95435.95;;;1.62;62.92
80568;BME280;69922;45.656;25.586;2024-03-08T02:55:27;95439.52;;;1.61;62.61
80568;BME280;69922;45.656;25.586;2024-03-08T02:56:33;95437.08;;;1.60;62.63
80568;BME280;69922;45.656;25.586;2024-03-08T02:57:41;95435.63;;;1.58;62.93
80568;BME280;69922;45.656;25.586;2024-03-08T02:58:50;95441.88;;;1.60;62.84
80568;BME280;69922;45.656;25.586;2024-03-08T02:59:56;95441.88;;;1.59;63.05
80568;BME280;69922;45.656;25.586;2024-03-08T03:01:07;95438.84;;;1.57;62.98
80568;BME280;69922;45.656;25.586;2024-03-08T03:02:14;95439.80;;;1.57;62.93
80568;BME280;69922;45.656;25.586;2024-03-08T03:03:20;95439.42;;;1.57;62.84
80568;BME280;69922;45.656;25.586;2024-03-08T03:04:28;95440.23;;;1.57;62.99
80568;BME280;69922;45.656;25.586;2024-03-08T03:05:34;95438.96;;;1.57;63.07
80568;BME280;69922;45.656;25.586;2024-03-08T03:06:41;95439.05;;;1.56;63.08
80568;BME280;69922;45.656;25.586;2024-03-08T03:07:48;95437.27;;;1.55;63.03
80568;BME280;69922;45.656;25.586;2024-03-08T03:08:54;95440.13;;;1.55;63.12
80568;BME280;69922;45.656;25.586;2024-03-08T03:10:05;95436.46;;;1.54;63.09
80568;BME280;69922;45.656;25.586;2024-03-08T03:11:13;95436.45;;;1.53;62.91
80568;BME280;69922;45.656;25.586;2024-03-08T03:12:20;95434.30;;;1.53;63.07
80568;BME280;69922;45.656;25.586;2024-03-08T03:13:27;95434.14;;;1.53;63.13
80568;BME280;69922;45.656;25.586;2024-03-08T03:14:37;95435.80;;;1.53;62.90
80568;BME280;69922;45.656;25.586;2024-03-08T03:15:43;95433.76;;;1.51;63.03
80568;BME280;69922;45.656;25.586;2024-03-08T03:16:50;95434.28;;;1.48;62.75
80568;BME280;69922;45.656;25.586;2024-03-08T03:17:57;95436.80;;;1.47;63.08
80568;BME280;69922;45.656;25.586;2024-03-08T03:19:04;95435.73;;;1.46;63.14
80568;BME280;69922;45.656;25.586;2024-03-08T03:20:13;95435.49;;;1.45;63.05
80568;BME280;69922;45.656;25.586;2024-03-08T03:21:20;95435.60;;;1.45;62.94
80568;BME280;69922;45.656;25.586;2024-03-08T03:22:27;95434.31;;;1.45;63.16
80568;BME280;69922;45.656;25.586;2024-03-08T03:23:34;95434.95;;;1.45;63.20
80568;BME280;69922;45.656;25.586;2024-03-08T03:24:41;95433.92;;;1.44;63.21
80568;BME280;69922;45.656;25.586;2024-03-08T03:25:48;95434.30;;;1.44;63.05
80568;BME280;69922;45.656;25.586;2024-03-08T03:26:55;95435.70;;;1.43;63.22
80568;BME280;69922;45.656;25.586;2024-03-08T03:28:02;95437.73;;;1.43;63.21
80568;BME280;69922;45.656;25.586;2024-03-08T03:29:10;95436.66;;;1.42;63.20
80568;BME280;69922;45.656;25.586;2024-03-08T03:30:18;95438.98;;;1.41;63.43
80568;BME280;69922;45.656;25.586;2024-03-08T03:31:27;95437.41;;;1.39;63.49
80568;BME280;69922;45.656;25.586;2024-03-08T03:32:34;95435.73;;;1.39;63.33
80568;BME280;69922;45.656;25.586;2024-03-08T03:33:50;95435.12;;;1.38;63.14
80568;BME280;69922;45.656;25.586;2024-03-08T03:34:58;95435.13;;;1.38;63.29
80568;BME280;69922;45.656;25.586;2024-03-08T03:36:06;95433.02;;;1.38;63.27
80568;BME280;69922;45.656;25.586;2024-03-08T03:37:17;95435.46;;;1.38;63.19
80568;BME280;69922;45.656;25.586;2024-03-08T03:38:26;95431.64;;;1.39;63.46
80568;BME280;69922;45.656;25.586;2024-03-08T03:39:34;95430.39;;;1.39;63.29
80568;BME280;69922;45.656;25.586;2024-03-08T03:40:47;95435.77;;;1.39;63.31
80568;BME280;69922;45.656;25.586;2024-03-08T03:41:54;95432.76;;;1.38;63.43
80568;BME280;69922;45.656;25.586;2024-03-08T03:43:02;95434.81;;;1.39;63.37
80568;BME280;69922;45.656;25.586;2024-03-08T03:44:09;95433.36;;;1.39;63.37
80568;BME280;69922;45.656;25.586;2024-03-08T03:45:16;95434.49;;;1.40;63.53
80568;BME280;69922;45.656;25.586;2024-03-08T03:46:26;95436.17;;;1.39;63.54
80568;BME280;69922;45.656;25.586;2024-03-08T03:47:33;95437.34;;;1.40;63.54
80568;BME280;69922;45.656;25.586;2024-03-08T03:48:40;95435.84;;;1.39;63.44
80568;BME280;69922;45.656;25.586;2024-03-08T03:49:50;95435.30;;;1.40;63.56
80568;BME280;69922;45.656;25.586;2024-03-08T03:50:57;95436.55;;;1.41;63.58
80568;BME280;69922;45.656;25.586;2024-03-08T03:52:04;95432.68;;;1.42;63.67
80568;BME280;69922;45.656;25.586;2024-03-08T03:53:12;95432.14;;;1.42;63.62
80568;BME280;69922;45.656;25.586;2024-03-08T03:54:19;95434.28;;;1.42;63.44
80568;BME280;69922;45.656;25.586;2024-03-08T03:55:26;95433.69;;;1.41;63.58
80568;BME280;69922;45.656;25.586;2024-03-08T03:56:34;95432.20;;;1.42;63.32
80568;BME280;69922;45.656;25.586;2024-03-08T03:57:40;95433.60;;;1.43;63.53
80568;BME280;69922;45.656;25.586;2024-03-08T03:58:48;95429.73;;;1.43;63.47
80568;BME280;69922;45.656;25.586;2024-03-08T03:59:55;95435.70;;;1.44;63.65
80568;BME280;69922;45.656;25.586;2024-03-08T04:01:03;95432.52;;;1.43;63.41
80568;BME280;69922;45.656;25.586;2024-03-08T04:02:10;95434.88;;;1.43;63.72
80568;BME280;69922;45.656;25.586;2024-03-08T04:03:17;95429.02;;;1.42;63.53
80568;BME280;69922;45.656;25.586;2024-03-08T04:04:23;95434.36;;;1.44;63.72
80568;BME280;69922;45.656;25.586;2024-03-08T04:05:31;95433.06;;;1.44;63.45
80568;BME280;69922;45.656;25.586;2024-03-08T04:06:38;95436.67;;;1.45;63.55
80568;BME280;69922;45.656;25.586;2024-03-08T04:07:46;95439.90;;;1.45;63.36
80568;BME280;69922;45.656;25.586;2024-03-08T04:08:52;95439.31;;;1.45;63.48
80568;BME280;69922;45.656;25.586;2024-03-08T04:09:59;95438.29;;;1.46;63.49
80568;BME280;69922;45.656;25.586;2024-03-08T04:11:07;95438.94;;;1.46;63.57
80568;BME280;69922;45.656;25.586;2024-03-08T04:12:15;95439.00;;;1.47;63.35
80568;BME280;69922;45.656;25.586;2024-03-08T04:13:22;95438.89;;;1.47;63.49
80568;BME280;69922;45.656;25.586;2024-03-08T04:14:28;95441.85;;;1.48;63.46
80568;BME280;69922;45.656;25.586;2024-03-08T04:15:35;95443.87;;;1.49;63.58
80568;BME280;69922;45.656;25.586;2024-03-08T04:16:42;95443.55;;;1.49;63.71
80568;BME280;69922;45.656;25.586;2024-03-08T04:17:49;95444.34;;;1.48;63.67
80568;BME280;69922;45.656;25.586;2024-03-08T04:18:56;95445.52;;;1.47;63.45
80568;BME280;69922;45.656;25.586;2024-03-08T04:20:04;95444.33;;;1.47;63.32
80568;BME280;69922;45.656;25.586;2024-03-08T04:21:15;95445.24;;;1.47;63.42
80568;BME280;69922;45.656;25.586;2024-03-08T04:22:22;95444.48;;;1.46;63.45
80568;BME280;69922;45.656;25.586;2024-03-08T04:23:29;95446.38;;;1.47;63.56
80568;BME280;69922;45.656;25.586;2024-03-08T04:24:35;95442.98;;;1.47;63.21
80568;BME280;69922;45.656;25.586;2024-03-08T04:25:42;95443.69;;;1.47;63.26
80568;BME280;69922;45.656;25.586;2024-03-08T04:26:49;95446.20;;;1.47;63.33
80568;BME280;69922;45.656;25.586;2024-03-08T04:27:57;95445.30;;;1.47;63.62
80568;BME280;69922;45.656;25.586;2024-03-08T04:29:04;95445.63;;;1.47;63.62
80568;BME280;69922;45.656;25.586;2024-03-08T04:30:14;95445.40;;;1.47;63.26
80568;BME280;69922;45.656;25.586;2024-03-08T04:31:20;95446.98;;;1.48;63.29
80568;BME280;69922;45.656;25.586;2024-03-08T04:32:28;95443.92;;;1.48;63.37
80568;BME280;69922;45.656;25.586;2024-03-08T04:33:36;95443.96;;;1.48;63.46
80568;BME280;69922;45.656;25.586;2024-03-08T04:34:44;95444.60;;;1.47;63.23
80568;BME280;69922;45.656;25.586;2024-03-08T04:35:52;95447.71;;;1.46;63.43
80568;BME280;69922;45.656;25.586;2024-03-08T04:37:00;95448.04;;;1.46;63.63
80568;BME280;69922;45.656;25.586;2024-03-08T04:38:07;95447.17;;;1.46;63.66
80568;BME280;69922;45.656;25.586;2024-03-08T04:39:13;95447.45;;;1.47;63.66
80568;BME280;69922;45.656;25.586;2024-03-08T04:40:22;95448.41;;;1.46;63.63
80568;BME280;69922;45.656;25.586;2024-03-08T04:41:28;95448.61;;;1.45;63.64
80568;BME280;69922;45.656;25.586;2024-03-08T04:42:38;95446.20;;;1.44;63.44
80568;BME280;69922;45.656;25.586;2024-03-08T04:43:45;95448.40;;;1.43;63.41
80568;BME280;69922;45.656;25.586;2024-03-08T04:44:53;95449.25;;;1.42;63.48
80568;BME280;69922;45.656;25.586;2024-03-08T04:46:00;95450.70;;;1.41;63.37
80568;BME280;69922;45.656;25.586;2024-03-08T04:47:10;95451.62;;;1.41;63.45
80568;BME280;69922;45.656;25.586;2024-03-08T04:48:17;95452.32;;;1.40;63.53
80568;BME280;69922;45.656;25.586;2024-03-08T04:49:24;95451.45;;;1.40;63.57
80568;BME280;69922;45.656;25.586;2024-03-08T04:50:31;95453.93;;;1.40;63.56
80568;BME280;69922;45.656;25.586;2024-03-08T04:51:38;95454.95;;;1.40;63.37
80568;BME280;69922;45.656;25.586;2024-03-08T04:52:44;95457.48;;;1.40;63.40
80568;BME280;69922;45.656;25.586;2024-03-08T04:53:51;95454.09;;;1.40;63.39
80568;BME280;69922;45.656;25.586;2024-03-08T04:54:58;95454.20;;;1.41;63.56
80568;BME280;69922;45.656;25.586;2024-03-08T04:56:06;95453.14;;;1.42;63.34
80568;BME280;69922;45.656;25.586;2024-03-08T04:57:13;95454.09;;;1.43;63.34
80568;BME280;69922;45.656;25.586;2024-03-08T04:58:20;95459.01;;;1.43;63.56
80568;BME280;69922;45.656;25.586;2024-03-08T04:59:27;95458.30;;;1.44;63.57
80568;BME280;69922;45.656;25.586;2024-03-08T05:00:34;95457.55;;;1.45;63.63
80568;BME280;69922;45.656;25.586;2024-03-08T05:01:42;95457.88;;;1.46;63.65
80568;BME280;69922;45.656;25.586;2024-03-08T05:02:50;95460.36;;;1.45;63.39
80568;BME280;69922;45.656;25.586;2024-03-08T05:03:59;95460.45;;;1.44;63.59
80568;BME280;69922;45.656;25.586;2024-03-08T05:05:12;95462.19;;;1.45;63.35
80568;BME280;69922;45.656;25.586;2024-03-08T05:06:19;95460.20;;;1.44;63.49
80568;BME280;69922;45.656;25.586;2024-03-08T05:07:27;95456.26;;;1.44;63.67
80568;BME280;69922;45.656;25.586;2024-03-08T05:08:34;95457.77;;;1.46;63.38
80568;BME280;69922;45.656;25.586;2024-03-08T05:09:41;95459.49;;;1.47;63.40
80568;BME280;69922;45.656;25.586;2024-03-08T05:10:48;95456.88;;;1.48;63.62
80568;BME280;69922;45.656;25.586;2024-03-08T05:11:55;95458.08;;;1.50;63.41
80568;BME280;69922;45.656;25.586;2024-03-08T05:13:03;95459.44;;;1.51;63.40
80568;BME280;69922;45.656;25.586;2024-03-08T05:14:09;95459.49;;;1.52;63.61
80568;BME280;69922;45.656;25.586;2024-03-08T05:15:16;95457.39;;;1.53;63.26
80568;BME280;69922;45.656;25.586;2024-03-08T05:16:24;95456.85;;;1.54;63.27
80568;BME280;69922;45.656;25.586;2024-03-08T05:17:30;95457.56;;;1.55;63.08
80568;BME280;69922;45.656;25.586;2024-03-08T05:18:37;95455.30;;;1.56;62.99
80568;BME280;69922;45.656;25.586;2024-03-08T05:19:44;95462.05;;;1.58;63.13
80568;BME280;69922;45.656;25.586;2024-03-08T05:20:51;95463.84;;;1.60;62.99
80568;BME280;69922;45.656;25.586;2024-03-08T05:21:58;95462.56;;;1.62;62.88
80568;BME280;69922;45.656;25.586;2024-03-08T05:23:05;95463.86;;;1.65;63.01
80568;BME280;69922;45.656;25.586;2024-03-08T05:24:11;95463.52;;;1.68;62.94
80568;BME280;69922;45.656;25.586;2024-03-08T05:25:19;95467.14;;;1.72;62.84
80568;BME280;69922;45.656;25.586;2024-03-08T05:26:26;95465.69;;;1.74;62.58
80568;BME280;69922;45.656;25.586;2024-03-08T05:27:33;95466.67;;;1.76;62.66
80568;BME280;69922;45.656;25.586;2024-03-08T05:28:40;95466.35;;;1.78;62.60
80568;BME280;69922;45.656;25.586;2024-03-08T05:29:46;95465.67;;;1.81;62.39
80568;BME280;69922;45.656;25.586;2024-03-08T05:30:54;95465.35;;;1.82;62.53
80568;BME280;69922;45.656;25.586;2024-03-08T05:32:03;95467.04;;;1.85;62.38
80568;BME280;69922;45.656;25.586;2024-03-08T05:33:10;95466.61;;;1.86;62.24
80568;BME280;69922;45.656;25.586;2024-03-08T05:34:18;95462.64;;;1.89;62.13
80568;BME280;69922;45.656;25.586;2024-03-08T05:35:28;95468.15;;;1.91;62.22
80568;BME280;69922;45.656;25.586;2024-03-08T05:36:35;95472.42;;;1.93;62.26
80568;BME280;69922;45.656;25.586;2024-03-08T05:37:41;95472.48;;;1.95;61.93
80568;BME280;69922;45.656;25.586;2024-03-08T05:38:51;95472.42;;;1.97;61.96
80568;BME280;69922;45.656;25.586;2024-03-08T05:39:58;95476.48;;;2.00;61.86
80568;BME280;69922;45.656;25.586;2024-03-08T05:41:06;95473.27;;;2.01;61.67
80568;BME280;69922;45.656;25.586;2024-03-08T05:42:15;95475.20;;;2.02;61.59
80568;BME280;69922;45.656;25.586;2024-03-08T05:43:21;95477.14;;;2.03;61.86
80568;BME280;69922;45.656;25.586;2024-03-08T05:44:28;95477.25;;;2.05;61.48
80568;BME280;69922;45.656;25.586;2024-03-08T05:45:37;95478.98;;;2.06;61.77
80568;BME280;69922;45.656;25.586;2024-03-08T05:46:44;95479.91;;;2.08;61.58
80568;BME280;69922;45.656;25.586;2024-03-08T05:47:51;95483.31;;;2.10;61.39
80568;BME280;69922;45.656;25.586;2024-03-08T05:48:58;95485.27;;;2.12;61.37
80568;BME280;69922;45.656;25.586;2024-03-08T05:50:07;95484.41;;;2.15;61.27
80568;BME280;69922;45.656;25.586;2024-03-08T05:51:16;95482.88;;;2.19;61.22
80568;BME280;69922;45.656;25.586;2024-03-08T05:52:23;95487.35;;;2.22;61.29
80568;BME280;69922;45.656;25.586;2024-03-08T05:53:30;95483.98;;;2.26;61.39
80568;BME280;69922;45.656;25.586;2024-03-08T05:54:38;95485.98;;;2.30;61.32
80568;BME280;69922;45.656;25.586;2024-03-08T05:55:45;95484.50;;;2.36;62.41
80568;BME280;69922;45.656;25.586;2024-03-08T05:56:52;95486.23;;;2.45;62.14
80568;BME280;69922;45.656;25.586;2024-03-08T05:57:59;95487.77;;;2.51;62.43
80568;BME280;69922;45.656;25.586;2024-03-08T05:59:07;95487.65;;;2.58;61.35